Terminal Aerodrome Forecast
Issued by NWS Mt. Holly, NJ

Home | Current Version | Previous Version | Text Only | Print | Product List | Glossary On
Versions: 1 2 3 4 5 6 7 8 9 10 11 12 13
000
FTUS41 KPHI 220500
TAFACY
TAF
KACY 220520Z 2206/2306 VRB02KT P6SM SKC
     FM221400 22011KT P6SM FEW200
     FM230000 21008KT P6SM FEW070=

USA.gov is the U.S. government's official web portal to all federal, state and local government web resources and services.